Time;durP1;ratioP1;P1;durP2;ratioP2;P2;SDS_P1;SDS_P2;PMS_P1;PMS_P2;Temp;Humidity;BMP_temperature;BMP_pressure;BME280_temperature;BME280_humidity;BME280_pressure;Samples;Min_cycle;Max_cycle;Signal;HPM_P1;HPM_P2
2021/09/07 00:01:57;;;;;;;;;;;;;;;9.18;74.81;101657.20;1621891;87;25890;-77
2021/09/07 00:04:28;;;;;;;;;;;;;;;9.16;74.80;101660.03;1640145;86;25866;-77
2021/09/07 00:06:52;;;;;;;;;;;;;;;9.15;74.89;101664.20;1618418;86;28303;-77
2021/09/07 00:09:19;;;;;;;;;;;;;;;9.14;75.01;101665.18;1600251;86;25936;-77
2021/09/07 00:11:46;;;;;;;;;;;;;;;9.11;75.03;101657.48;1637992;86;25825;-76
2021/09/07 00:14:13;;;;;;;;;;;;;;;9.11;75.00;101662.83;1595130;87;26472;-76
2021/09/07 00:16:40;;;;;;;;;;;;;;;9.10;75.00;101661.98;1620772;86;26064;-77
2021/09/07 00:19:08;;;;;;;;;;;;;;;9.09;75.07;101650.08;1640385;86;27618;-77
2021/09/07 00:21:35;;;;;;;;;;;;;;;9.09;75.06;101653.60;1611753;86;26481;-76
2021/09/07 00:24:01;;;;;;;;;;;;;;;9.09;74.91;101651.42;1601150;88;26479;-77
2021/09/07 00:26:28;;;;;;;;;;;;;;;9.06;74.80;101649.06;1622294;86;25916;-77
2021/09/07 00:28:56;;;;;;;;;;;;;;;9.03;74.92;101640.00;1587170;88;25647;-77
2021/09/07 00:31:22;;;;;;;;;;;;;;;8.99;75.11;101633.28;1620985;88;27113;-77
2021/09/07 00:33:50;;;;;;;;;;;;;;;8.97;75.20;101632.59;1570208;89;26054;-77
2021/09/07 00:36:16;;;;;;;;;;;;;;;8.95;75.17;101635.43;1595482;87;25810;-77
2021/09/07 00:38:43;;;;;;;;;;;;;;;8.93;75.33;101621.88;1606659;88;26300;-77
2021/09/07 00:41:11;;;;;;;;;;;;;;;8.92;75.57;101621.02;1611902;88;25793;-77
2021/09/07 00:43:40;;;;;;;;;;;;;;;8.94;75.65;101630.25;1611836;88;27664;-77
2021/09/07 00:46:06;;;;;;;;;;;;;;;8.94;75.62;101627.58;1640660;87;25796;-77
2021/09/07 00:48:33;;;;;;;;;;;;;;;8.93;75.71;101621.88;1630090;86;25815;-77
2021/09/07 00:51:00;;;;;;;;;;;;;;;8.89;75.77;101611.99;1653275;86;26641;-77
2021/09/07 00:53:27;;;;;;;;;;;;;;;8.84;75.81;101618.27;1622453;87;25875;-77
2021/09/07 00:55:57;;;;;;;;;;;;;;;8.82;75.99;101616.25;1628291;86;27684;-77
2021/09/07 00:58:26;;;;;;;;;;;;;;;8.83;76.08;101614.42;1650759;86;25900;-77
2021/09/07 01:00:53;;;;;;;;;;;;;;;8.80;76.17;101615.56;1644565;86;25900;-77
2021/09/07 01:03:20;;;;;;;;;;;;;;;8.78;76.27;101610.02;1575957;90;26683;-77
2021/09/07 01:05:47;;;;;;;;;;;;;;;8.76;76.44;101610.67;1574064;89;26088;-76
2021/09/07 01:08:15;;;;;;;;;;;;;;;8.74;76.57;101608.64;1599319;86;28233;-77
2021/09/07 01:10:43;;;;;;;;;;;;;;;8.75;76.70;101616.98;1642481;86;25912;-77
2021/09/07 01:13:10;;;;;;;;;;;;;;;8.75;76.78;101605.81;1618712;86;25997;-76
2021/09/07 01:15:38;;;;;;;;;;;;;;;8.75;76.85;101602.30;1600968;88;25934;-77
2021/09/07 01:18:05;;;;;;;;;;;;;;;8.73;76.90;101601.12;1643070;86;26015;-77
2021/09/07 01:20:32;;;;;;;;;;;;;;;8.67;76.84;101601.72;1640247;87;27646;-76
2021/09/07 01:22:59;;;;;;;;;;;;;;;8.62;76.94;101598.65;1639144;86;25537;-77
2021/09/07 01:25:26;;;;;;;;;;;;;;;8.58;77.05;101598.61;1641641;86;25944;-77
2021/09/07 01:27:52;;;;;;;;;;;;;;;8.54;77.11;101597.23;1623576;86;25988;-77
2021/09/07 01:30:20;;;;;;;;;;;;;;;8.51;77.10;101595.69;1642310;86;26511;-77
2021/09/07 01:32:48;;;;;;;;;;;;;;;8.48;77.16;101598.68;1599319;86;27498;-77
2021/09/07 01:35:14;;;;;;;;;;;;;;;8.45;77.18;101593.63;1600374;86;26506;-77
2021/09/07 01:37:42;;;;;;;;;;;;;;;8.43;77.25;101593.42;1637620;85;26717;-77
2021/09/07 01:40:10;;;;;;;;;;;;;;;8.38;77.26;101600.53;1614184;87;26609;-77
2021/09/07 01:42:37;;;;;;;;;;;;;;;8.35;77.34;101598.67;1619596;86;25774;-76
2021/09/07 01:45:03;;;;;;;;;;;;;;;8.36;77.32;101605.19;1640956;86;28231;-77
2021/09/07 01:47:30;;;;;;;;;;;;;;;8.38;77.46;101595.72;1618914;86;25848;-76
2021/09/07 01:49:57;;;;;;;;;;;;;;;8.38;77.41;101589.86;1643294;86;25322;-77
2021/09/07 01:52:23;;;;;;;;;;;;;;;8.40;77.59;101597.22;1637376;86;25866;-77
2021/09/07 01:54:50;;;;;;;;;;;;;;;8.39;77.61;101590.70;1597971;88;26082;-77
2021/09/07 01:57:18;;;;;;;;;;;;;;;8.41;77.71;101582.05;1641503;86;28257;-77
2021/09/07 01:59:45;;;;;;;;;;;;;;;8.42;77.74;101582.41;1599238;86;26638;-76
2021/09/07 02:02:13;;;;;;;;;;;;;;;8.43;77.55;101585.41;1619934;86;26662;-77
2021/09/07 02:04:40;;;;;;;;;;;;;;;8.42;77.47;101578.41;1647403;86;26010;-77
2021/09/07 02:07:07;;;;;;;;;;;;;;;8.43;77.57;101586.27;1623813;86;25887;-77
2021/09/07 02:09:34;;;;;;;;;;;;;;;8.43;77.46;101582.25;1641194;86;28321;-77
2021/09/07 02:12:01;;;;;;;;;;;;;;;8.43;77.70;101570.23;1618688;86;25832;-77
2021/09/07 02:14:28;;;;;;;;;;;;;;;8.45;77.84;101577.61;1625772;87;25796;-77
2021/09/07 02:16:55;;;;;;;;;;;;;;;8.45;77.88;101572.27;1577675;89;25871;-77
2021/09/07 02:19:24;;;;;;;;;;;;;;;8.43;77.66;101577.41;1583332;87;44866;-77
2021/09/07 02:21:51;;;;;;;;;;;;;;;8.39;77.83;101576.88;1623602;86;27545;-76
2021/09/07 02:24:19;;;;;;;;;;;;;;;8.37;77.84;101576.67;1642319;86;26178;-77
2021/09/07 02:26:47;;;;;;;;;;;;;;;8.35;77.89;101576.83;1617567;87;26026;-76
2021/09/07 02:29:14;;;;;;;;;;;;;;;8.33;77.86;101578.80;1595654;89;26711;-77
2021/09/07 02:31:42;;;;;;;;;;;;;;;8.28;78.07;101579.73;1583543;88;25807;-77
2021/09/07 02:34:09;;;;;;;;;;;;;;;8.24;78.00;101577.47;1603577;88;27610;-77
2021/09/07 02:36:37;;;;;;;;;;;;;;;8.21;78.06;101580.45;1583496;86;26571;-77
2021/09/07 02:39:04;;;;;;;;;;;;;;;8.15;78.08;101578.34;1568099;90;25365;-77
2021/09/07 02:41:32;;;;;;;;;;;;;;;8.13;78.17;101577.17;1566869;90;25909;-77
2021/09/07 02:44:00;;;;;;;;;;;;;;;8.10;78.30;101574.81;1615532;88;25777;-77
2021/09/07 02:46:26;;;;;;;;;;;;;;;8.11;78.42;101571.63;1620410;87;27603;-77
2021/09/07 02:48:53;;;;;;;;;;;;;;;8.10;78.43;101573.48;1619542;87;25990;-77
2021/09/07 02:51:20;;;;;;;;;;;;;;;8.11;78.42;101571.63;1617794;87;25935;-77
2021/09/07 02:53:48;;;;;;;;;;;;;;;8.11;78.49;101570.30;1597708;87;25966;-77
2021/09/07 02:56:15;;;;;;;;;;;;;;;8.10;78.34;101561.47;1638324;87;26450;-77
2021/09/07 02:58:42;;;;;;;;;;;;;;;8.10;78.33;101558.80;1597358;87;27356;-78
2021/09/07 03:01:09;;;;;;;;;;;;;;;8.10;78.35;101559.29;1619084;87;25352;-77
2021/09/07 03:03:36;;;;;;;;;;;;;;;8.07;78.31;101557.75;1637919;87;26103;-77
2021/09/07 03:06:04;;;;;;;;;;;;;;;8.00;78.34;101553.16;1598420;87;26516;-77
2021/09/07 03:08:32;;;;;;;;;;;;;;;7.96;78.40;101551.27;1621112;87;25989;-77
2021/09/07 03:10:59;;;;;;;;;;;;;;;7.97;78.48;101550.78;1620825;87;28216;-77
2021/09/07 03:13:26;;;;;;;;;;;;;;;7.95;78.55;101544.75;1624117;87;25908;-77
2021/09/07 03:15:53;;;;;;;;;;;;;;;7.95;78.59;101548.75;1636039;86;26676;-77
2021/09/07 03:18:20;;;;;;;;;;;;;;;7.93;78.63;101545.39;1603011;86;26534;-76
2021/09/07 03:20:47;;;;;;;;;;;;;;;7.91;78.67;101544.70;1600796;87;26234;-77
2021/09/07 03:23:15;;;;;;;;;;;;;;;7.90;78.66;101550.52;1623786;86;27697;-77
2021/09/07 03:25:42;;;;;;;;;;;;;;;7.89;78.67;101550.68;1608626;87;26572;-77
2021/09/07 03:28:09;;;;;;;;;;;;;;;7.91;78.75;101548.70;1600643;86;26559;-77
2021/09/07 03:30:36;;;;;;;;;;;;;;;7.90;78.76;101545.67;1619812;87;25927;-77
2021/09/07 03:33:03;;;;;;;;;;;;;;;7.89;78.62;101545.34;1602093;86;25844;-77
2021/09/07 03:35:31;;;;;;;;;;;;;;;7.85;78.72;101552.77;1634036;86;28395;-77
2021/09/07 03:37:58;;;;;;;;;;;;;;;7.85;78.80;101551.44;1610321;87;25857;-77
2021/09/07 03:40:25;;;;;;;;;;;;;;;7.85;78.85;101556.78;1609302;87;26202;-77
2021/09/07 03:42:51;;;;;;;;;;;;;;;7.86;78.83;101554.95;1594256;89;26496;-77
2021/09/07 03:45:19;;;;;;;;;;;;;;;7.84;78.75;101553.78;1571371;89;26393;-77
2021/09/07 03:47:48;;;;;;;;;;;;;;;7.84;78.81;101559.11;1610675;88;28288;-76
2021/09/07 03:50:15;;;;;;;;;;;;;;;7.85;78.79;101554.63;1576895;89;25893;-77
2021/09/07 03:52:44;;;;;;;;;;;;;;;7.83;78.89;101560.60;1568715;89;25894;-76
2021/09/07 03:55:12;;;;;;;;;;;;;;;7.81;78.82;101560.72;1610305;89;26724;-77
2021/09/07 03:57:39;;;;;;;;;;;;;;;7.80;78.89;101565.73;1574450;89;26438;-77
2021/09/07 04:00:08;;;;;;;;;;;;;;;7.80;79.04;101560.39;1610084;89;27433;-77
2021/09/07 04:02:40;;;;;;;;;;;;;;;7.79;79.12;101561.37;1595249;89;25832;-77
2021/09/07 04:05:09;;;;;;;;;;;;;;;7.77;79.11;101557.52;1591897;89;25991;-77
2021/09/07 04:07:35;;;;;;;;;;;;;;;7.75;79.10;101558.16;1609911;89;26502;-77
2021/09/07 04:10:04;;;;;;;;;;;;;;;7.73;79.04;101555.28;1582201;88;25963;-77
2021/09/07 04:12:31;;;;;;;;;;;;;;;7.73;79.00;101557.95;1573954;89;28187;-77
2021/09/07 04:14:59;;;;;;;;;;;;;;;7.71;78.98;101554.11;1603936;89;25831;-77
2021/09/07 04:17:26;;;;;;;;;;;;;;;7.71;79.05;101547.92;1572634;89;26092;-77
2021/09/07 04:19:53;;;;;;;;;;;;;;;7.73;79.02;101549.95;1608747;89;25924;-77
2021/09/07 04:22:20;;;;;;;;;;;;;;;7.73;79.08;101561.95;1593632;89;25811;-77
2021/09/07 04:24:47;;;;;;;;;;;;;;;7.73;79.06;101558.80;1591144;88;28056;-77
2021/09/07 04:27:13;;;;;;;;;;;;;;;7.75;79.26;101561.31;1609335;89;25861;-77
2021/09/07 04:29:40;;;;;;;;;;;;;;;7.75;79.23;101565.31;1581618;89;25938;-77
2021/09/07 04:32:07;;;;;;;;;;;;;;;7.76;79.22;101567.01;1574838;89;26702;-77
2021/09/07 04:34:33;;;;;;;;;;;;;;;7.75;79.21;101554.16;1610371;89;25920;-77
2021/09/07 04:37:00;;;;;;;;;;;;;;;7.75;79.22;101561.31;1592516;88;27654;-76
2021/09/07 04:39:27;;;;;;;;;;;;;;;7.75;79.22;101563.50;1610951;89;25790;-77
2021/09/07 04:41:53;;;;;;;;;;;;;;;7.76;79.24;101565.16;1592124;89;25931;-77
2021/09/07 04:44:23;;;;;;;;;;;;;;;7.77;79.37;101566.00;1571976;89;25943;-76
2021/09/07 04:46:51;;;;;;;;;;;;;;;7.78;79.44;101567.19;1610185;89;25996;-77
2021/09/07 04:49:18;;;;;;;;;;;;;;;7.81;79.58;101567.39;1582043;89;27663;-77
2021/09/07 04:51:45;;;;;;;;;;;;;;;7.85;79.65;101571.45;1595496;89;26593;-76
2021/09/07 04:54:12;;;;;;;;;;;;;;;7.89;79.81;101571.50;1610666;89;25851;-77
2021/09/07 04:56:38;;;;;;;;;;;;;;;7.95;79.97;101566.09;1576102;89;25893;-77
2021/09/07 04:59:05;;;;;;;;;;;;;;;7.99;80.06;101564.81;1610776;88;25440;-77
2021/09/07 05:01:32;;;;;;;;;;;;;;;8.04;80.34;101567.89;1596302;89;27595;-77
2021/09/07 05:03:58;;;;;;;;;;;;;;;8.07;80.58;101571.09;1571592;89;25924;-77
2021/09/07 05:06:25;;;;;;;;;;;;;;;8.13;80.97;101570.98;1610469;89;26495;-77
2021/09/07 05:08:52;;;;;;;;;;;;;;;8.17;81.02;101569.73;1571693;89;26694;-77
2021/09/07 05:11:18;;;;;;;;;;;;;;;8.19;81.20;101569.09;1575083;89;25976;-77
2021/09/07 05:13:45;;;;;;;;;;;;;;;8.21;81.44;101571.93;1610380;88;27525;-77
2021/09/07 05:16:12;;;;;;;;;;;;;;;8.27;81.72;101574.55;1576820;89;26004;-77
2021/09/07 05:18:39;;;;;;;;;;;;;;;8.34;82.02;101568.45;1610494;89;26120;-77
2021/09/07 05:21:06;;;;;;;;;;;;;;;8.42;82.26;101567.73;1568636;90;25897;-77
2021/09/07 05:23:33;;;;;;;;;;;;;;;8.47;82.31;101574.77;1539076;90;25789;-77
2021/09/07 05:25:59;;;;;;;;;;;;;;;8.50;82.33;101579.83;1575154;90;28339;-77
2021/09/07 05:28:26;;;;;;;;;;;;;;;8.55;82.41;101578.90;1596852;89;25854;-77
2021/09/07 05:30:53;;;;;;;;;;;;;;;8.62;82.49;101586.63;1590107;88;25949;-77
2021/09/07 05:33:20;;;;;;;;;;;;;;;8.69;82.48;101590.88;1572124;90;26763;-77
2021/09/07 05:35:46;;;;;;;;;;;;;;;8.75;82.50;101588.45;1544293;88;25423;-77
2021/09/07 05:38:13;;;;;;;;;;;;;;;8.83;82.62;101591.20;1585184;90;27605;-76
2021/09/07 05:40:39;;;;;;;;;;;;;;;8.90;82.69;101588.76;1567584;90;25928;-77
2021/09/07 05:43:06;;;;;;;;;;;;;;;8.98;82.80;101587.53;1567494;90;25801;-77
2021/09/07 05:45:33;;;;;;;;;;;;;;;9.05;82.80;101585.91;1585149;90;26219;-77
2021/09/07 05:48:00;;;;;;;;;;;;;;;9.11;82.78;101594.16;1557743;90;25970;-77
2021/09/07 05:50:26;;;;;;;;;;;;;;;9.19;82.98;101598.75;1566627;90;28216;-76
2021/09/07 05:52:53;;;;;;;;;;;;;;;9.22;82.81;101594.41;1567657;90;26604;-76
2021/09/07 05:55:20;;;;;;;;;;;;;;;9.26;82.93;101585.94;1547753;90;25891;-76
2021/09/07 05:57:47;;;;;;;;;;;;;;;9.29;83.04;101589.66;1585102;90;26646;-76
2021/09/07 06:00:14;;;;;;;;;;;;;;;9.32;83.23;101586.65;1567643;90;25845;-77
2021/09/07 06:02:41;;;;;;;;;;;;;;;9.37;83.57;101580.84;1566844;90;28089;-76
2021/09/07 06:05:09;;;;;;;;;;;;;;;9.45;83.71;101580.08;1567347;90;25925;-77
2021/09/07 06:07:36;;;;;;;;;;;;;;;9.53;83.93;101584.15;1564814;90;26582;-76
2021/09/07 06:10:04;;;;;;;;;;;;;;;9.59;84.12;101592.39;1566755;90;26547;-77
2021/09/07 06:12:30;;;;;;;;;;;;;;;9.68;84.20;101590.61;1585439;90;26151;-77
2021/09/07 06:14:57;;;;;;;;;;;;;;;9.76;84.41;101586.64;1567778;90;28347;-77
2021/09/07 06:17:24;;;;;;;;;;;;;;;9.88;84.75;101587.55;1581622;90;25386;-76
2021/09/07 06:19:50;;;;;;;;;;;;;;;9.97;84.64;101586.61;1567552;90;25740;-77
2021/09/07 06:22:17;;;;;;;;;;;;;;;10.12;85.00;101586.89;1566560;90;26626;-76
2021/09/07 06:24:44;;;;;;;;;;;;;;;10.23;85.12;101585.27;1585020;90;25801;-77
2021/09/07 06:27:10;;;;;;;;;;;;;;;10.34;84.79;101590.84;1556346;90;27646;-76
2021/09/07 06:29:37;;;;;;;;;;;;;;;10.41;84.57;101590.05;1566658;90;26065;-77
2021/09/07 06:32:04;;;;;;;;;;;;;;;10.49;84.73;101594.09;1567240;90;26537;-76
2021/09/07 06:34:31;;;;;;;;;;;;;;;10.59;84.65;101596.62;1548241;90;26511;-76
2021/09/07 06:36:58;;;;;;;;;;;;;;;10.71;85.00;101602.03;1583208;89;26401;-76
2021/09/07 06:39:25;;;;;;;;;;;;;;;10.81;84.57;101597.36;1567335;90;27864;-76
2021/09/07 06:41:52;;;;;;;;;;;;;;;10.89;84.32;101601.39;1566276;90;25802;-76
2021/09/07 06:44:18;;;;;;;;;;;;;;;11.01;84.55;101607.30;1585197;90;25416;-77
2021/09/07 06:46:45;;;;;;;;;;;;;;;11.16;84.75;101613.69;1567106;90;26594;-77
2021/09/07 06:49:12;;;;;;;;;;;;;;;11.26;84.44;101611.67;1566845;90;25823;-77
2021/09/07 06:51:38;;;;;;;;;;;;;;;11.36;84.16;101609.16;1585238;90;27593;-76
2021/09/07 06:54:05;;;;;;;;;;;;;;;11.47;84.15;101613.36;1547494;90;25901;-76
2021/09/07 06:56:32;;;;;;;;;;;;;;;11.60;84.00;101613.20;1585612;90;25601;-76
2021/09/07 06:58:58;;;;;;;;;;;;;;;11.70;83.62;101617.06;1568017;90;25926;-76
2021/09/07 07:01:25;;;;;;;;;;;;;;;11.78;83.53;101606.34;1547173;90;25769;-77
2021/09/07 07:03:52;;;;;;;;;;;;;;;11.91;83.53;101610.66;1584593;90;28281;-77
2021/09/07 07:06:18;;;;;;;;;;;;;;;12.03;83.25;101608.45;1556776;90;26012;-76
2021/09/07 07:08:45;;;;;;;;;;;;;;;12.16;83.60;101602.89;1566202;90;26003;-77
2021/09/07 07:11:12;;;;;;;;;;;;;;;12.29;83.34;101601.84;1567322;90;25803;-76
2021/09/07 07:13:39;;;;;;;;;;;;;;;12.41;82.81;101598.25;1546641;90;25752;-77
2021/09/07 07:16:05;;;;;;;;;;;;;;;12.53;82.77;101600.88;1585538;90;27606;-77
2021/09/07 07:18:32;;;;;;;;;;;;;;;12.64;82.78;101597.80;1566011;90;25769;-76
2021/09/07 07:20:59;;;;;;;;;;;;;;;12.77;82.72;101607.48;1547962;90;26686;-76
2021/09/07 07:23:26;;;;;;;;;;;;;;;12.86;81.88;101609.62;1585160;90;26596;-76
2021/09/07 07:25:52;;;;;;;;;;;;;;;12.96;81.72;101608.88;1557635;90;25929;-76
2021/09/07 07:28:19;;;;;;;;;;;;;;;13.08;81.58;101608.84;1566634;90;27586;-76
2021/09/07 07:30:46;;;;;;;;;;;;;;;13.19;81.22;101608.44;1585329;90;26554;-76
2021/09/07 07:33:14;;;;;;;;;;;;;;;13.32;81.08;101610.03;1538301;90;26013;-76
2021/09/07 07:35:42;;;;;;;;;;;;;;;13.44;79.72;101611.77;1585001;90;25940;-76
2021/09/07 07:38:08;;;;;;;;;;;;;;;13.58;78.46;101610.99;1594758;89;25885;-77
2021/09/07 07:40:36;;;;;;;;;;;;;;;13.71;78.39;101618.76;1599746;87;27575;-77
2021/09/07 07:43:03;;;;;;;;;;;;;;;13.83;77.69;101614.62;1619712;87;25929;-76
2021/09/07 07:45:29;;;;;;;;;;;;;;;13.95;77.69;101612.30;1599432;87;26637;-77
2021/09/07 07:47:56;;;;;;;;;;;;;;;14.07;78.24;101610.00;1621538;87;26584;-76
2021/09/07 07:50:23;;;;;;;;;;;;;;;14.20;76.80;101612.89;1622091;87;25804;-76
2021/09/07 07:52:49;;;;;;;;;;;;;;;14.30;76.80;101613.47;1621534;87;28368;-77
2021/09/07 07:55:16;;;;;;;;;;;;;;;14.40;76.13;101618.91;1620238;87;26592;-76
2021/09/07 07:57:43;;;;;;;;;;;;;;;14.53;75.26;101616.89;1621658;87;25874;-77
2021/09/07 08:00:10;;;;;;;;;;;;;;;14.62;74.25;101617.97;1640537;87;26551;-77
2021/09/07 08:02:38;;;;;;;;;;;;;;;14.72;74.44;101622.20;1598205;87;25851;-77
2021/09/07 08:05:05;;;;;;;;;;;;;;;14.84;75.24;101622.06;1621695;87;27696;-76
2021/09/07 08:07:32;;;;;;;;;;;;;;;14.96;74.90;101619.17;1640488;87;26107;-76
2021/09/07 08:09:59;;;;;;;;;;;;;;;15.09;74.94;101626.92;1602479;86;26502;-76
2021/09/07 08:12:26;;;;;;;;;;;;;;;15.21;73.83;101629.93;1624724;87;25914;-77
2021/09/07 08:14:53;;;;;;;;;;;;;;;15.32;73.29;101622.67;1620820;87;25989;-76
2021/09/07 08:17:19;;;;;;;;;;;;;;;15.45;73.78;101630.94;1619074;87;28254;-76
2021/09/07 08:19:46;;;;;;;;;;;;;;;15.57;73.90;101634.78;1640696;87;25906;-77
2021/09/07 08:22:14;;;;;;;;;;;;;;;15.65;72.80;101637.37;1620004;87;25809;-77
2021/09/07 08:24:42;;;;;;;;;;;;;;;15.73;71.90;101629.63;1618513;87;26670;-76
2021/09/07 08:27:08;;;;;;;;;;;;;;;15.83;73.12;101628.26;1640513;87;26425;-77
2021/09/07 08:29:35;;;;;;;;;;;;;;;15.93;71.48;101620.63;1622409;87;27589;-76
2021/09/07 08:32:02;;;;;;;;;;;;;;;16.03;72.48;101629.25;1593408;88;25860;-77
2021/09/07 08:34:29;;;;;;;;;;;;;;;16.14;72.11;101628.67;1577342;89;26477;-77
2021/09/07 08:36:56;;;;;;;;;;;;;;;16.24;71.03;101629.69;1580679;88;26509;-77
2021/09/07 08:39:23;;;;;;;;;;;;;;;16.32;71.14;101631.38;1616088;87;25925;-77
2021/09/07 08:41:50;;;;;;;;;;;;;;;16.36;69.87;101627.28;1574903;88;27677;-77
2021/09/07 08:44:18;;;;;;;;;;;;;;;16.40;69.56;101625.84;1595869;88;25928;-77
2021/09/07 08:46:45;;;;;;;;;;;;;;;16.47;69.15;101618.58;1595023;88;25875;-77
2021/09/07 08:49:13;;;;;;;;;;;;;;;16.51;69.50;101627.47;1555712;88;25883;-77
2021/09/07 08:51:40;;;;;;;;;;;;;;;16.59;69.54;101625.14;1615991;88;26020;-77
2021/09/07 08:54:07;;;;;;;;;;;;;;;16.66;69.35;101624.12;1591523;88;28109;-77
2021/09/07 08:56:34;;;;;;;;;;;;;;;16.79;68.71;101624.69;1575753;88;25760;-77
2021/09/07 08:59:00;;;;;;;;;;;;;;;16.93;69.49;101624.55;1616328;88;25837;-77
2021/09/07 09:01:29;;;;;;;;;;;;;;;17.05;67.87;101617.17;1574466;88;26177;-77
2021/09/07 09:03:56;;;;;;;;;;;;;;;17.11;67.46;101617.19;1571833;88;25944;-77
2021/09/07 09:06:26;;;;;;;;;;;;;;;17.18;67.72;101608.57;1616065;88;28310;-77
2021/09/07 09:09:07;;;;;;;;;;;;;;;17.28;67.18;101606.28;1574366;88;25848;-78
2021/09/07 09:11:54;;;;;;;;;;;;;;;17.41;67.29;101610.88;1595751;88;25822;-77
2021/09/07 09:14:42;;;;;;;;;;;;;;;17.52;65.66;101611.15;1591613;88;25824;-77
2021/09/07 09:17:21;;;;;;;;;;;;;;;17.66;64.47;101614.70;1576918;88;25850;-77
2021/09/07 09:20:06;;;;;;;;;;;;;;;17.72;63.17;101609.80;1616889;88;28274;-77
2021/09/07 09:22:53;;;;;;;;;;;;;;;17.79;64.01;101611.16;1579988;89;26163;-78
2021/09/07 09:25:23;;;;;;;;;;;;;;;17.88;63.20;101611.27;1587736;88;25989;-77
2021/09/07 09:28:00;;;;;;;;;;;;;;;18.00;63.70;101612.28;1615348;88;26597;-77
2021/09/07 09:30:29;;;;;;;;;;;;;;;18.09;63.26;101616.45;1595323;88;25872;-77
2021/09/07 09:32:58;;;;;;;;;;;;;;;18.13;61.61;101610.39;1596259;88;27546;-77
2021/09/07 09:35:24;;;;;;;;;;;;;;;18.19;62.22;101612.77;1596102;88;25550;-77
2021/09/07 09:38:03;;;;;;;;;;;;;;;18.27;60.24;101605.75;1573528;88;25889;-78
2021/09/07 09:40:31;;;;;;;;;;;;;;;18.35;60.96;101609.58;1561326;90;26692;-77
2021/09/07 09:42:58;;;;;;;;;;;;;;;18.46;61.07;101601.66;1574481;88;25946;-77
2021/09/07 09:45:30;;;;;;;;;;;;;;;18.54;60.40;101596.50;1595119;88;27590;-77
2021/09/07 09:47:59;;;;;;;;;;;;;;;18.56;59.55;101594.95;1615642;88;25818;-77
2021/09/07 09:50:26;;;;;;;;;;;;;;;18.60;59.88;101594.31;1576020;88;25847;-77
2021/09/07 09:52:55;;;;;;;;;;;;;;;18.65;60.24;101595.03;1595697;88;26505;-77
2021/09/07 09:55:23;;;;;;;;;;;;;;;18.72;59.17;101593.09;1573933;87;25952;-77
2021/09/07 09:57:49;;;;;;;;;;;;;;;18.77;58.63;101599.56;1596003;88;28697;-77
2021/09/07 10:00:18;;;;;;;;;;;;;;;18.80;58.32;101596.91;1595434;88;25865;-77
2021/09/07 10:02:45;;;;;;;;;;;;;;;18.83;58.61;101595.98;1575143;88;26036;-77
2021/09/07 10:05:14;;;;;;;;;;;;;;;18.89;58.47;101587.48;1595933;88;25891;-77
2021/09/07 10:07:41;;;;;;;;;;;;;;;18.98;59.10;101595.69;1612508;88;26566;-77
2021/09/07 10:10:08;;;;;;;;;;;;;;;19.02;57.59;101592.32;1575264;88;27630;-77
2021/09/07 10:12:40;;;;;;;;;;;;;;;19.07;56.77;101589.80;1595850;88;25979;-77
2021/09/07 10:15:54;;;;;;;;;;;;;;;19.14;58.09;101584.29;1595297;88;25957;-77
2021/09/07 10:17:52;;;;;;;;;;;;;;;19.19;57.33;101580.41;1615074;88;25884;-77
2021/09/07 10:20:40;;;;;;;;;;;;;;;19.28;57.19;101587.77;1615773;87;25959;-77
2021/09/07 10:23:15;;;;;;;;;;;;;;;19.38;57.04;101592.20;1572112;88;26911;-78
2021/09/07 10:25:54;;;;;;;;;;;;;;;19.48;57.48;101592.56;1614797;88;25793;-77
2021/09/07 10:28:42;;;;;;;;;;;;;;;19.55;55.79;101600.13;1615774;88;25789;-77
2021/09/07 10:31:14;;;;;;;;;;;;;;;19.53;56.33;101602.23;1575425;88;25800;-77
2021/09/07 10:33:44;;;;;;;;;;;;;;;19.46;56.27;101596.03;1595695;88;25965;-77
2021/09/07 10:36:24;;;;;;;;;;;;;;;19.44;56.86;101596.23;1590158;86;27539;-77
2021/09/07 10:38:56;;;;;;;;;;;;;;;19.51;57.51;101586.67;1572595;88;25818;-77
2021/09/07 10:41:38;;;;;;;;;;;;;;;19.61;56.55;101574.80;1616005;88;25826;-77
2021/09/07 10:44:28;;;;;;;;;;;;;;;19.69;57.35;101572.63;1572121;88;25899;-77
2021/09/07 10:46:58;;;;;;;;;;;;;;;19.80;56.56;101568.34;1596587;88;26702;-77
2021/09/07 10:49:28;;;;;;;;;;;;;;;19.88;54.81;101564.81;1615591;88;27534;-77
2021/09/07 10:52:29;;;;;;;;;;;;;;;19.92;54.42;101563.30;1594294;88;25945;-77
2021/09/07 10:55:12;;;;;;;;;;;;;;;19.92;53.69;101561.11;1595411;88;26542;-77
2021/09/07 10:57:43;;;;;;;;;;;;;;;19.94;54.98;101558.47;1595725;88;25967;-77
2021/09/07 11:00:26;;;;;;;;;;;;;;;20.03;55.23;101554.09;1612255;88;25940;-77
2021/09/07 11:03:01;;;;;;;;;;;;;;;20.12;55.46;101555.47;1612686;88;27438;-77
2021/09/07 11:05:36;;;;;;;;;;;;;;;20.23;54.24;101552.03;1570233;88;25752;-77
2021/09/07 11:08:09;;;;;;;;;;;;;;;20.31;55.07;101558.52;1616024;88;25812;-78
2021/09/07 11:10:42;;;;;;;;;;;;;;;20.35;53.94;101563.80;1615896;88;25857;-77
2021/09/07 11:13:22;;;;;;;;;;;;;;;20.38;54.29;101570.17;1587986;88;25757;-77
2021/09/07 11:15:49;;;;;;;;;;;;;;;20.41;54.41;101566.45;1616968;88;27589;-77
2021/09/07 11:18:26;;;;;;;;;;;;;;;20.46;54.36;101566.61;1594321;88;25802;-77
2021/09/07 11:20:55;;;;;;;;;;;;;;;20.52;53.84;101561.61;1593588;88;25833;-77
2021/09/07 11:23:24;;;;;;;;;;;;;;;20.53;54.10;101559.17;1616275;88;26494;-77
2021/09/07 11:26:03;;;;;;;;;;;;;;;20.51;53.51;101558.56;1574986;88;25886;-77
2021/09/07 11:28:34;;;;;;;;;;;;;;;20.56;53.05;101566.05;1612706;88;28451;-77
2021/09/07 11:31:04;;;;;;;;;;;;;;;20.61;52.79;101567.05;1616005;88;25877;-78
2021/09/07 11:33:35;;;;;;;;;;;;;;;20.63;52.60;101566.81;1574547;88;26585;-78
2021/09/07 11:36:07;;;;;;;;;;;;;;;20.59;52.46;101563.69;1593336;87;25968;-77
2021/09/07 11:38:40;;;;;;;;;;;;;;;20.55;51.59;101563.05;1580136;90;25547;-77
2021/09/07 11:41:12;;;;;;;;;;;;;;;20.52;51.47;101558.05;1582394;90;28219;-78
2021/09/07 11:43:42;;;;;;;;;;;;;;;20.57;52.42;101559.56;1582819;90;25955;-77
2021/09/07 11:46:18;;;;;;;;;;;;;;;20.64;52.17;101558.41;1566708;90;25344;-77
2021/09/07 11:48:53;;;;;;;;;;;;;;;20.67;51.91;101557.95;1583196;90;26609;-77
2021/09/07 11:51:26;;;;;;;;;;;;;;;20.74;52.38;101557.31;1589573;88;25826;-77
2021/09/07 11:53:55;;;;;;;;;;;;;;;20.88;52.61;101553.89;1595464;88;27062;-77
2021/09/07 11:56:23;;;;;;;;;;;;;;;20.96;51.73;101552.72;1595328;88;26276;-77
2021/09/07 11:58:50;;;;;;;;;;;;;;;21.00;52.24;101555.30;1594797;88;25900;-77
2021/09/07 12:01:19;;;;;;;;;;;;;;;21.05;52.19;101548.64;1595533;88;26641;-77
2021/09/07 12:03:49;;;;;;;;;;;;;;;21.12;52.02;101552.11;1615895;88;25726;-77
2021/09/07 12:06:22;;;;;;;;;;;;;;;21.20;51.35;101546.31;1574761;88;27592;-78
2021/09/07 12:08:49;;;;;;;;;;;;;;;21.23;50.97;101546.70;1613706;88;25896;-77
2021/09/07 12:11:31;;;;;;;;;;;;;;;21.27;51.22;101543.80;1595803;88;26290;-77
2021/09/07 12:14:15;;;;;;;;;;;;;;;21.34;51.13;101551.31;1555106;88;25968;-77
2021/09/07 12:17:00;;;;;;;;;;;;;;;21.37;50.68;101544.05;1616036;88;25765;-77
2021/09/07 12:19:33;;;;;;;;;;;;;;;21.42;51.61;101540.62;1594938;88;28109;-77
2021/09/07 12:22:09;;;;;;;;;;;;;;;;;;1574900;88;25798;-77
2021/09/07 12:24:38;;;;;;;;;;;;;;;21.54;51.27;101541.45;1595840;88;26057;-77
2021/09/07 12:27:20;;;;;;;;;;;;;;;21.61;51.18;101535.36;1571651;88;25892;-77
2021/09/07 12:30:11;;;;;;;;;;;;;;;21.69;50.77;101528.18;1614234;88;25777;-77
2021/09/07 12:33:08;;;;;;;;;;;;;;;21.74;50.62;101526.95;1613705;88;28211;-77
2021/09/07 12:35:41;;;;;;;;;;;;;;;21.80;49.52;101520.53;1573793;88;25850;-77
2021/09/07 12:38:14;;;;;;;;;;;;;;;21.84;48.91;101517.66;1613031;87;25859;-77
2021/09/07 12:40:44;;;;;;;;;;;;;;;21.85;49.59;101519.85;1593663;87;25776;-77
2021/09/07 12:43:16;;;;;;;;;;;;;;;21.84;49.47;101517.66;1616129;88;25925;-77
2021/09/07 12:45:44;;;;;;;;;;;;;;;21.83;49.25;101520.63;1595908;88;28403;-78
2021/09/07 12:48:11;;;;;;;;;;;;;;;21.82;48.83;101523.02;1575129;88;25937;-77
2021/09/07 12:50:38;;;;;;;;;;;;;;;21.81;49.20;101520.81;1612322;88;25833;-77
2021/09/07 12:53:07;;;;;;;;;;;;;;;21.84;49.42;101521.74;1575526;88;26619;-77